sensor_id;sensor_type;location;lat;lon;timestamp;P1;durP1;ratioP1;P2;durP2;ratioP2
65613;SDS011;52283;49.292;10.572;2023-07-24T00:01:45;10.93;;;5.18;;
65613;SDS011;52283;49.292;10.572;2023-07-24T00:04:11;6.32;;;4.07;;
65613;SDS011;52283;49.292;10.572;2023-07-24T00:06:37;7.55;;;4.25;;
65613;SDS011;52283;49.292;10.572;2023-07-24T00:09:04;9.65;;;5.18;;
65613;SDS011;52283;49.292;10.572;2023-07-24T00:11:30;9.45;;;4.22;;
65613;SDS011;52283;49.292;10.572;2023-07-24T00:13:57;6.82;;;4.57;;
65613;SDS011;52283;49.292;10.572;2023-07-24T00:16:23;7.40;;;4.65;;
65613;SDS011;52283;49.292;10.572;2023-07-24T00:18:51;8.23;;;5.10;;
65613;SDS011;52283;49.292;10.572;2023-07-24T00:21:17;8.13;;;4.60;;
65613;SDS011;52283;49.292;10.572;2023-07-24T00:23:44;11.15;;;4.78;;
65613;SDS011;52283;49.292;10.572;2023-07-24T00:26:10;9.80;;;5.25;;
65613;SDS011;52283;49.292;10.572;2023-07-24T00:28:37;9.27;;;4.50;;
65613;SDS011;52283;49.292;10.572;2023-07-24T00:31:03;8.05;;;4.20;;
65613;SDS011;52283;49.292;10.572;2023-07-24T00:33:30;9.27;;;5.22;;
65613;SDS011;52283;49.292;10.572;2023-07-24T00:35:57;8.90;;;5.13;;
65613;SDS011;52283;49.292;10.572;2023-07-24T00:38:24;12.02;;;5.72;;
65613;SDS011;52283;49.292;10.572;2023-07-24T00:40:50;10.88;;;5.72;;
65613;SDS011;52283;49.292;10.572;2023-07-24T00:43:17;15.63;;;5.32;;
65613;SDS011;52283;49.292;10.572;2023-07-24T00:45:43;9.73;;;4.90;;
65613;SDS011;52283;49.292;10.572;2023-07-24T00:48:12;10.73;;;5.75;;
65613;SDS011;52283;49.292;10.572;2023-07-24T00:50:39;11.00;;;5.40;;
65613;SDS011;52283;49.292;10.572;2023-07-24T00:53:09;12.27;;;5.35;;
65613;SDS011;52283;49.292;10.572;2023-07-24T00:55:37;14.50;;;5.25;;
65613;SDS011;52283;49.292;10.572;2023-07-24T00:58:04;12.45;;;5.30;;
65613;SDS011;52283;49.292;10.572;2023-07-24T01:00:30;12.23;;;5.45;;
65613;SDS011;52283;49.292;10.572;2023-07-24T01:02:57;13.30;;;6.15;;
65613;SDS011;52283;49.292;10.572;2023-07-24T01:05:25;10.35;;;4.97;;
65613;SDS011;52283;49.292;10.572;2023-07-24T01:07:52;11.02;;;5.72;;
65613;SDS011;52283;49.292;10.572;2023-07-24T01:10:20;11.20;;;6.68;;
65613;SDS011;52283;49.292;10.572;2023-07-24T01:12:49;12.05;;;5.47;;
65613;SDS011;52283;49.292;10.572;2023-07-24T01:15:25;9.82;;;5.30;;
65613;SDS011;52283;49.292;10.572;2023-07-24T01:17:57;10.55;;;6.05;;
65613;SDS011;52283;49.292;10.572;2023-07-24T01:20:26;9.63;;;5.53;;
65613;SDS011;52283;49.292;10.572;2023-07-24T01:22:57;11.40;;;5.85;;
65613;SDS011;52283;49.292;10.572;2023-07-24T01:25:43;11.23;;;6.15;;
65613;SDS011;52283;49.292;10.572;2023-07-24T01:28:14;11.07;;;5.95;;
65613;SDS011;52283;49.292;10.572;2023-07-24T01:30:40;10.98;;;5.72;;
65613;SDS011;52283;49.292;10.572;2023-07-24T01:33:07;10.93;;;6.13;;
65613;SDS011;52283;49.292;10.572;2023-07-24T01:35:33;11.80;;;5.65;;
65613;SDS011;52283;49.292;10.572;2023-07-24T01:38:00;8.70;;;5.32;;
65613;SDS011;52283;49.292;10.572;2023-07-24T01:40:29;10.40;;;6.32;;
65613;SDS011;52283;49.292;10.572;2023-07-24T01:42:59;11.40;;;5.93;;
65613;SDS011;52283;49.292;10.572;2023-07-24T01:45:25;9.95;;;5.78;;
65613;SDS011;52283;49.292;10.572;2023-07-24T01:47:52;10.93;;;6.32;;
65613;SDS011;52283;49.292;10.572;2023-07-24T01:50:18;11.80;;;7.38;;
65613;SDS011;52283;49.292;10.572;2023-07-24T01:52:45;15.00;;;6.60;;
65613;SDS011;52283;49.292;10.572;2023-07-24T01:55:11;11.45;;;6.70;;
65613;SDS011;52283;49.292;10.572;2023-07-24T01:57:38;10.10;;;5.93;;
65613;SDS011;52283;49.292;10.572;2023-07-24T02:00:06;10.32;;;5.78;;
65613;SDS011;52283;49.292;10.572;2023-07-24T02:02:33;9.98;;;6.35;;
65613;SDS011;52283;49.292;10.572;2023-07-24T02:05:00;10.00;;;5.38;;
65613;SDS011;52283;49.292;10.572;2023-07-24T02:07:26;9.20;;;5.40;;
65613;SDS011;52283;49.292;10.572;2023-07-24T02:09:53;10.80;;;5.38;;
65613;SDS011;52283;49.292;10.572;2023-07-24T02:12:19;11.40;;;6.03;;
65613;SDS011;52283;49.292;10.572;2023-07-24T02:14:46;10.05;;;5.47;;
65613;SDS011;52283;49.292;10.572;2023-07-24T02:17:16;9.27;;;4.90;;
65613;SDS011;52283;49.292;10.572;2023-07-24T02:19:42;9.80;;;5.90;;
65613;SDS011;52283;49.292;10.572;2023-07-24T02:22:09;10.68;;;6.32;;
65613;SDS011;52283;49.292;10.572;2023-07-24T02:24:35;12.00;;;7.00;;
65613;SDS011;52283;49.292;10.572;2023-07-24T02:27:02;9.07;;;5.75;;
65613;SDS011;52283;49.292;10.572;2023-07-24T02:29:28;8.73;;;5.35;;
65613;SDS011;52283;49.292;10.572;2023-07-24T02:31:57;10.30;;;6.63;;
65613;SDS011;52283;49.292;10.572;2023-07-24T02:34:25;10.70;;;5.75;;
65613;SDS011;52283;49.292;10.572;2023-07-24T02:36:53;11.02;;;5.53;;
65613;SDS011;52283;49.292;10.572;2023-07-24T02:39:19;10.48;;;5.97;;
65613;SDS011;52283;49.292;10.572;2023-07-24T02:41:47;10.38;;;5.90;;
65613;SDS011;52283;49.292;10.572;2023-07-24T02:44:14;9.45;;;5.70;;
65613;SDS011;52283;49.292;10.572;2023-07-24T02:46:40;10.70;;;6.25;;
65613;SDS011;52283;49.292;10.572;2023-07-24T02:49:07;12.93;;;6.25;;
65613;SDS011;52283;49.292;10.572;2023-07-24T02:51:34;11.18;;;6.70;;
65613;SDS011;52283;49.292;10.572;2023-07-24T02:54:01;12.18;;;6.38;;
65613;SDS011;52283;49.292;10.572;2023-07-24T02:56:27;11.13;;;6.00;;
65613;SDS011;52283;49.292;10.572;2023-07-24T02:58:54;12.57;;;5.97;;
65613;SDS011;52283;49.292;10.572;2023-07-24T03:01:20;11.07;;;5.88;;
65613;SDS011;52283;49.292;10.572;2023-07-24T03:03:47;12.65;;;6.38;;
65613;SDS011;52283;49.292;10.572;2023-07-24T03:06:14;8.45;;;5.45;;
65613;SDS011;52283;49.292;10.572;2023-07-24T03:08:42;11.90;;;6.40;;
65613;SDS011;52283;49.292;10.572;2023-07-24T03:11:08;10.15;;;5.65;;
65613;SDS011;52283;49.292;10.572;2023-07-24T03:13:35;14.02;;;6.40;;
65613;SDS011;52283;49.292;10.572;2023-07-24T03:16:01;10.35;;;6.13;;
65613;SDS011;52283;49.292;10.572;2023-07-24T03:18:28;10.80;;;5.68;;
65613;SDS011;52283;49.292;10.572;2023-07-24T03:20:54;12.38;;;7.13;;
65613;SDS011;52283;49.292;10.572;2023-07-24T03:23:23;14.27;;;6.35;;
65613;SDS011;52283;49.292;10.572;2023-07-24T03:25:51;9.68;;;6.15;;
65613;SDS011;52283;49.292;10.572;2023-07-24T03:28:17;11.23;;;5.50;;
65613;SDS011;52283;49.292;10.572;2023-07-24T03:30:44;11.93;;;6.13;;
65613;SDS011;52283;49.292;10.572;2023-07-24T03:33:10;10.75;;;6.07;;
65613;SDS011;52283;49.292;10.572;2023-07-24T03:35:37;11.85;;;5.63;;
65613;SDS011;52283;49.292;10.572;2023-07-24T03:38:04;10.60;;;6.05;;
65613;SDS011;52283;49.292;10.572;2023-07-24T03:40:30;10.75;;;6.20;;
65613;SDS011;52283;49.292;10.572;2023-07-24T03:42:58;13.45;;;6.82;;
65613;SDS011;52283;49.292;10.572;2023-07-24T03:45:24;13.07;;;6.97;;
65613;SDS011;52283;49.292;10.572;2023-07-24T03:47:51;11.30;;;6.43;;
65613;SDS011;52283;49.292;10.572;2023-07-24T03:50:17;11.27;;;6.78;;
65613;SDS011;52283;49.292;10.572;2023-07-24T03:52:44;12.35;;;6.03;;
65613;SDS011;52283;49.292;10.572;2023-07-24T03:55:10;12.18;;;6.03;;
65613;SDS011;52283;49.292;10.572;2023-07-24T03:57:37;14.90;;;7.38;;
65613;SDS011;52283;49.292;10.572;2023-07-24T04:00:05;11.35;;;6.05;;
65613;SDS011;52283;49.292;10.572;2023-07-24T04:02:32;10.50;;;6.72;;
65613;SDS011;52283;49.292;10.572;2023-07-24T04:04:59;16.48;;;7.53;;
65613;SDS011;52283;49.292;10.572;2023-07-24T04:07:25;13.43;;;6.78;;
65613;SDS011;52283;49.292;10.572;2023-07-24T04:09:52;11.63;;;7.00;;
65613;SDS011;52283;49.292;10.572;2023-07-24T04:12:19;11.23;;;6.68;;
65613;SDS011;52283;49.292;10.572;2023-07-24T04:14:45;12.00;;;7.63;;
65613;SDS011;52283;49.292;10.572;2023-07-24T04:17:15;15.57;;;7.30;;
65613;SDS011;52283;49.292;10.572;2023-07-24T04:19:41;12.70;;;7.18;;
65613;SDS011;52283;49.292;10.572;2023-07-24T04:22:08;13.05;;;6.78;;
65613;SDS011;52283;49.292;10.572;2023-07-24T04:24:34;11.88;;;5.90;;
65613;SDS011;52283;49.292;10.572;2023-07-24T04:27:00;11.65;;;6.38;;
65613;SDS011;52283;49.292;10.572;2023-07-24T04:29:27;9.55;;;5.80;;
65613;SDS011;52283;49.292;10.572;2023-07-24T04:31:53;10.07;;;6.28;;
65613;SDS011;52283;49.292;10.572;2023-07-24T04:34:21;13.68;;;6.65;;
65613;SDS011;52283;49.292;10.572;2023-07-24T04:36:48;13.25;;;6.20;;
65613;SDS011;52283;49.292;10.572;2023-07-24T04:39:14;10.93;;;5.50;;
65613;SDS011;52283;49.292;10.572;2023-07-24T04:41:41;11.88;;;6.13;;
65613;SDS011;52283;49.292;10.572;2023-07-24T04:44:07;9.15;;;5.43;;
65613;SDS011;52283;49.292;10.572;2023-07-24T04:46:33;11.60;;;6.25;;
65613;SDS011;52283;49.292;10.572;2023-07-24T04:49:00;10.10;;;5.78;;
65613;SDS011;52283;49.292;10.572;2023-07-24T04:51:28;10.50;;;5.88;;
65613;SDS011;52283;49.292;10.572;2023-07-24T04:53:54;10.32;;;6.03;;
65613;SDS011;52283;49.292;10.572;2023-07-24T04:56:20;13.35;;;5.97;;
65613;SDS011;52283;49.292;10.572;2023-07-24T04:58:47;11.77;;;5.60;;
65613;SDS011;52283;49.292;10.572;2023-07-24T05:01:13;8.95;;;5.30;;
65613;SDS011;52283;49.292;10.572;2023-07-24T05:03:40;9.98;;;5.15;;
65613;SDS011;52283;49.292;10.572;2023-07-24T05:06:06;12.27;;;6.18;;
65613;SDS011;52283;49.292;10.572;2023-07-24T05:08:34;10.43;;;5.60;;
65613;SDS011;52283;49.292;10.572;2023-07-24T05:11:01;8.45;;;5.35;;
65613;SDS011;52283;49.292;10.572;2023-07-24T05:13:27;11.00;;;5.97;;
65613;SDS011;52283;49.292;10.572;2023-07-24T05:15:54;9.25;;;5.30;;
65613;SDS011;52283;49.292;10.572;2023-07-24T05:18:20;12.10;;;6.05;;
65613;SDS011;52283;49.292;10.572;2023-07-24T05:20:47;13.77;;;6.07;;
65613;SDS011;52283;49.292;10.572;2023-07-24T05:23:16;9.80;;;5.50;;
65613;SDS011;52283;49.292;10.572;2023-07-24T05:25:44;9.40;;;5.28;;
65613;SDS011;52283;49.292;10.572;2023-07-24T05:28:10;7.95;;;4.97;;
65613;SDS011;52283;49.292;10.572;2023-07-24T05:30:37;11.35;;;5.35;;
65613;SDS011;52283;49.292;10.572;2023-07-24T05:33:03;8.55;;;4.97;;
65613;SDS011;52283;49.292;10.572;2023-07-24T05:35:30;11.52;;;5.53;;
65613;SDS011;52283;49.292;10.572;2023-07-24T05:37:56;11.07;;;5.95;;
65613;SDS011;52283;49.292;10.572;2023-07-24T05:40:23;12.07;;;6.68;;
65613;SDS011;52283;49.292;10.572;2023-07-24T05:42:51;10.25;;;5.20;;
65613;SDS011;52283;49.292;10.572;2023-07-24T05:45:17;8.32;;;5.15;;
65613;SDS011;52283;49.292;10.572;2023-07-24T05:47:44;10.70;;;6.18;;
65613;SDS011;52283;49.292;10.572;2023-07-24T05:50:10;10.85;;;5.85;;
65613;SDS011;52283;49.292;10.572;2023-07-24T05:52:38;11.10;;;6.63;;
65613;SDS011;52283;49.292;10.572;2023-07-24T05:55:05;8.23;;;5.53;;
65613;SDS011;52283;49.292;10.572;2023-07-24T05:57:32;10.73;;;6.80;;
65613;SDS011;52283;49.292;10.572;2023-07-24T05:59:59;10.40;;;5.50;;
65613;SDS011;52283;49.292;10.572;2023-07-24T06:02:26;10.02;;;5.45;;
65613;SDS011;52283;49.292;10.572;2023-07-24T06:04:52;10.23;;;5.82;;
65613;SDS011;52283;49.292;10.572;2023-07-24T06:07:19;13.30;;;5.45;;
65613;SDS011;52283;49.292;10.572;2023-07-24T06:09:45;10.88;;;5.95;;
65613;SDS011;52283;49.292;10.572;2023-07-24T06:12:11;9.55;;;5.22;;
65613;SDS011;52283;49.292;10.572;2023-07-24T06:14:38;10.35;;;5.20;;
65613;SDS011;52283;49.292;10.572;2023-07-24T06:17:06;11.07;;;6.18;;
65613;SDS011;52283;49.292;10.572;2023-07-24T06:19:32;8.90;;;5.50;;
65613;SDS011;52283;49.292;10.572;2023-07-24T06:21:59;12.57;;;6.00;;
65613;SDS011;52283;49.292;10.572;2023-07-24T06:24:25;12.18;;;5.78;;
65613;SDS011;52283;49.292;10.572;2023-07-24T06:26:51;9.88;;;5.38;;
65613;SDS011;52283;49.292;10.572;2023-07-24T06:29:18;14.70;;;5.43;;
65613;SDS011;52283;49.292;10.572;2023-07-24T06:31:44;7.97;;;4.65;;
65613;SDS011;52283;49.292;10.572;2023-07-24T06:34:12;9.30;;;5.68;;
65613;SDS011;52283;49.292;10.572;2023-07-24T06:36:38;11.13;;;6.70;;
65613;SDS011;52283;49.292;10.572;2023-07-24T06:39:05;10.40;;;6.07;;
65613;SDS011;52283;49.292;10.572;2023-07-24T06:41:31;11.35;;;5.60;;
65613;SDS011;52283;49.292;10.572;2023-07-24T06:43:58;9.80;;;5.03;;
65613;SDS011;52283;49.292;10.572;2023-07-24T06:46:24;10.57;;;5.70;;
65613;SDS011;52283;49.292;10.572;2023-07-24T06:48:51;11.05;;;5.68;;
65613;SDS011;52283;49.292;10.572;2023-07-24T06:51:19;9.57;;;6.03;;
65613;SDS011;52283;49.292;10.572;2023-07-24T06:53:45;9.02;;;5.45;;
65613;SDS011;52283;49.292;10.572;2023-07-24T06:56:11;10.23;;;6.07;;
65613;SDS011;52283;49.292;10.572;2023-07-24T06:58:38;11.00;;;6.32;;
65613;SDS011;52283;49.292;10.572;2023-07-24T07:01:05;13.35;;;6.53;;
65613;SDS011;52283;49.292;10.572;2023-07-24T07:03:32;13.63;;;6.30;;
65613;SDS011;52283;49.292;10.572;2023-07-24T07:05:59;9.85;;;6.00;;
65613;SDS011;52283;49.292;10.572;2023-07-24T07:08:28;11.45;;;6.70;;
65613;SDS011;52283;49.292;10.572;2023-07-24T07:10:55;11.80;;;5.57;;
65613;SDS011;52283;49.292;10.572;2023-07-24T07:13:22;12.77;;;6.45;;
65613;SDS011;52283;49.292;10.572;2023-07-24T07:15:48;11.25;;;6.03;;
65613;SDS011;52283;49.292;10.572;2023-07-24T07:18:15;13.95;;;6.53;;
65613;SDS011;52283;49.292;10.572;2023-07-24T07:20:44;8.00;;;5.70;;
65613;SDS011;52283;49.292;10.572;2023-07-24T07:23:11;9.07;;;5.40;;
65613;SDS011;52283;49.292;10.572;2023-07-24T07:25:39;10.77;;;6.20;;
65613;SDS011;52283;49.292;10.572;2023-07-24T07:28:06;9.15;;;5.72;;
65613;SDS011;52283;49.292;10.572;2023-07-24T07:30:32;11.10;;;6.40;;
65613;SDS011;52283;49.292;10.572;2023-07-24T07:32:58;10.07;;;6.13;;
65613;SDS011;52283;49.292;10.572;2023-07-24T07:35:25;10.60;;;6.55;;
65613;SDS011;52283;49.292;10.572;2023-07-24T07:37:51;11.80;;;6.00;;
65613;SDS011;52283;49.292;10.572;2023-07-24T07:40:18;10.93;;;6.68;;
65613;SDS011;52283;49.292;10.572;2023-07-24T07:42:46;16.73;;;7.40;;
65613;SDS011;52283;49.292;10.572;2023-07-24T07:45:12;10.20;;;5.70;;
65613;SDS011;52283;49.292;10.572;2023-07-24T07:47:39;9.90;;;6.63;;
65613;SDS011;52283;49.292;10.572;2023-07-24T07:50:05;12.73;;;7.15;;
65613;SDS011;52283;49.292;10.572;2023-07-24T07:52:32;12.30;;;6.28;;
65613;SDS011;52283;49.292;10.572;2023-07-24T07:54:59;11.93;;;6.00;;
65613;SDS011;52283;49.292;10.572;2023-07-24T07:57:25;10.18;;;5.97;;
65613;SDS011;52283;49.292;10.572;2023-07-24T07:59:53;12.73;;;5.85;;
65613;SDS011;52283;49.292;10.572;2023-07-24T08:02:19;11.13;;;6.20;;
65613;SDS011;52283;49.292;10.572;2023-07-24T08:04:46;10.35;;;6.22;;
65613;SDS011;52283;49.292;10.572;2023-07-24T08:07:12;10.75;;;5.88;;
65613;SDS011;52283;49.292;10.572;2023-07-24T08:09:39;11.32;;;6.55;;
65613;SDS011;52283;49.292;10.572;2023-07-24T08:12:06;9.40;;;6.53;;
65613;SDS011;52283;49.292;10.572;2023-07-24T08:14:33;10.52;;;5.57;;
65613;SDS011;52283;49.292;10.572;2023-07-24T08:17:00;11.55;;;6.10;;
65613;SDS011;52283;49.292;10.572;2023-07-24T08:19:27;12.98;;;7.10;;
65613;SDS011;52283;49.292;10.572;2023-07-24T08:21:54;12.55;;;5.80;;
65613;SDS011;52283;49.292;10.572;2023-07-24T08:24:20;8.18;;;5.70;;
65613;SDS011;52283;49.292;10.572;2023-07-24T08:26:47;8.90;;;5.75;;
65613;SDS011;52283;49.292;10.572;2023-07-24T08:29:13;13.45;;;6.82;;
65613;SDS011;52283;49.292;10.572;2023-07-24T08:31:40;11.50;;;5.93;;
65613;SDS011;52283;49.292;10.572;2023-07-24T08:34:08;11.77;;;6.13;;
65613;SDS011;52283;49.292;10.572;2023-07-24T08:36:34;10.15;;;6.63;;
65613;SDS011;52283;49.292;10.572;2023-07-24T08:39:02;13.82;;;7.25;;
65613;SDS011;52283;49.292;10.572;2023-07-24T08:41:29;10.90;;;6.45;;
65613;SDS011;52283;49.292;10.572;2023-07-24T08:43:57;10.20;;;6.10;;
65613;SDS011;52283;49.292;10.572;2023-07-24T08:46:24;11.25;;;6.68;;
65613;SDS011;52283;49.292;10.572;2023-07-24T08:48:51;12.63;;;6.85;;
65613;SDS011;52283;49.292;10.572;2023-07-24T08:51:21;12.98;;;6.70;;
65613;SDS011;52283;49.292;10.572;2023-07-24T08:53:48;9.43;;;6.03;;
65613;SDS011;52283;49.292;10.572;2023-07-24T08:56:15;10.07;;;6.95;;
65613;SDS011;52283;49.292;10.572;2023-07-24T08:58:42;11.10;;;6.75;;
65613;SDS011;52283;49.292;10.572;2023-07-24T09:01:08;14.23;;;7.35;;
65613;SDS011;52283;49.292;10.572;2023-07-24T09:03:35;12.13;;;6.38;;
65613;SDS011;52283;49.292;10.572;2023-07-24T09:06:02;14.40;;;6.93;;
65613;SDS011;52283;49.292;10.572;2023-07-24T09:08:33;10.90;;;6.47;;
65613;SDS011;52283;49.292;10.572;2023-07-24T09:11:01;10.20;;;6.40;;
65613;SDS011;52283;49.292;10.572;2023-07-24T09:13:29;13.30;;;7.40;;
65613;SDS011;52283;49.292;10.572;2023-07-24T09:15:56;13.77;;;7.90;;
65613;SDS011;52283;49.292;10.572;2023-07-24T09:18:24;12.05;;;6.18;;
65613;SDS011;52283;49.292;10.572;2023-07-24T09:20:51;11.88;;;7.13;;
65613;SDS011;52283;49.292;10.572;2023-07-24T09:23:25;10.38;;;6.35;;
65613;SDS011;52283;49.292;10.572;2023-07-24T09:25:54;15.80;;;7.40;;
65613;SDS011;52283;49.292;10.572;2023-07-24T09:28:21;8.40;;;6.10;;
65613;SDS011;52283;49.292;10.572;2023-07-24T09:30:51;11.57;;;6.72;;
65613;SDS011;52283;49.292;10.572;2023-07-24T09:33:18;11.40;;;6.28;;
65613;SDS011;52283;49.292;10.572;2023-07-24T09:35:56;8.80;;;6.50;;
65613;SDS011;52283;49.292;10.572;2023-07-24T09:38:23;10.38;;;6.35;;
65613;SDS011;52283;49.292;10.572;2023-07-24T09:40:49;11.55;;;6.57;;
65613;SDS011;52283;49.292;10.572;2023-07-24T09:43:21;11.50;;;7.00;;
65613;SDS011;52283;49.292;10.572;2023-07-24T09:45:49;12.00;;;5.95;;
65613;SDS011;52283;49.292;10.572;2023-07-24T09:48:16;12.90;;;6.88;;
65613;SDS011;52283;49.292;10.572;2023-07-24T09:50:44;10.93;;;6.43;;
65613;SDS011;52283;49.292;10.572;2023-07-24T09:53:12;10.23;;;6.55;;
65613;SDS011;52283;49.292;10.572;2023-07-24T09:55:44;10.52;;;6.07;;
65613;SDS011;52283;49.292;10.572;2023-07-24T09:58:16;12.43;;;5.90;;
65613;SDS011;52283;49.292;10.572;2023-07-24T10:00:44;11.55;;;6.00;;
65613;SDS011;52283;49.292;10.572;2023-07-24T10:03:12;11.95;;;6.18;;
65613;SDS011;52283;49.292;10.572;2023-07-24T10:05:40;12.18;;;6.10;;
65613;SDS011;52283;49.292;10.572;2023-07-24T10:08:07;11.45;;;6.95;;
65613;SDS011;52283;49.292;10.572;2023-07-24T10:10:34;11.25;;;5.82;;
65613;SDS011;52283;49.292;10.572;2023-07-24T10:13:02;12.55;;;6.53;;
65613;SDS011;52283;49.292;10.572;2023-07-24T10:15:31;10.30;;;6.25;;
65613;SDS011;52283;49.292;10.572;2023-07-24T10:18:01;10.27;;;6.10;;
65613;SDS011;52283;49.292;10.572;2023-07-24T10:20:32;9.65;;;6.03;;
65613;SDS011;52283;49.292;10.572;2023-07-24T10:23:00;10.50;;;6.38;;
65613;SDS011;52283;49.292;10.572;2023-07-24T10:25:28;10.48;;;6.03;;
65613;SDS011;52283;49.292;10.572;2023-07-24T10:28:00;13.07;;;6.38;;
65613;SDS011;52283;49.292;10.572;2023-07-24T10:30:28;12.57;;;7.05;;
65613;SDS011;52283;49.292;10.572;2023-07-24T10:33:04;9.45;;;6.57;;
65613;SDS011;52283;49.292;10.572;2023-07-24T10:35:36;8.07;;;5.60;;
65613;SDS011;52283;49.292;10.572;2023-07-24T10:38:06;13.75;;;6.18;;
65613;SDS011;52283;49.292;10.572;2023-07-24T10:40:33;9.60;;;6.20;;
65613;SDS011;52283;49.292;10.572;2023-07-24T10:43:00;9.90;;;6.53;;
65613;SDS011;52283;49.292;10.572;2023-07-24T10:45:40;9.53;;;6.73;;
65613;SDS011;52283;49.292;10.572;2023-07-24T10:48:09;9.38;;;5.75;;
65613;SDS011;52283;49.292;10.572;2023-07-24T10:50:37;9.32;;;6.28;;
65613;SDS011;52283;49.292;10.572;2023-07-24T10:53:04;10.00;;;6.28;;
65613;SDS011;52283;49.292;10.572;2023-07-24T10:55:31;12.95;;;6.30;;
65613;SDS011;52283;49.292;10.572;2023-07-24T10:57:57;8.40;;;5.40;;
65613;SDS011;52283;49.292;10.572;2023-07-24T11:00:25;13.27;;;5.65;;
65613;SDS011;52283;49.292;10.572;2023-07-24T11:02:52;8.15;;;5.45;;
65613;SDS011;52283;49.292;10.572;2023-07-24T11:05:20;8.93;;;5.97;;
65613;SDS011;52283;49.292;10.572;2023-07-24T11:07:47;7.53;;;4.65;;
65613;SDS011;52283;49.292;10.572;2023-07-24T11:10:14;11.15;;;5.47;;
65613;SDS011;52283;49.292;10.572;2023-07-24T11:12:41;8.02;;;6.00;;
65613;SDS011;52283;49.292;10.572;2023-07-24T11:15:08;8.55;;;5.75;;
65613;SDS011;52283;49.292;10.572;2023-07-24T11:17:35;10.80;;;5.05;;
65613;SDS011;52283;49.292;10.572;2023-07-24T11:20:09;10.00;;;5.10;;
65613;SDS011;52283;49.292;10.572;2023-07-24T11:22:39;8.25;;;5.07;;
65613;SDS011;52283;49.292;10.572;2023-07-24T11:25:06;8.02;;;4.75;;
65613;SDS011;52283;49.292;10.572;2023-07-24T11:27:37;7.47;;;4.22;;
65613;SDS011;52283;49.292;10.572;2023-07-24T11:30:06;6.53;;;4.03;;
65613;SDS011;52283;49.292;10.572;2023-07-24T11:32:33;6.47;;;4.00;;
65613;SDS011;52283;49.292;10.572;2023-07-24T11:34:59;7.28;;;4.32;;
65613;SDS011;52283;49.292;10.572;2023-07-24T11:37:27;5.55;;;4.20;;
65613;SDS011;52283;49.292;10.572;2023-07-24T11:39:56;6.07;;;3.90;;
65613;SDS011;52283;49.292;10.572;2023-07-24T11:42:26;6.00;;;4.05;;
65613;SDS011;52283;49.292;10.572;2023-07-24T11:44:53;7.13;;;4.60;;
65613;SDS011;52283;49.292;10.572;2023-07-24T11:47:20;8.38;;;4.50;;
65613;SDS011;52283;49.292;10.572;2023-07-24T11:49:56;6.50;;;4.22;;
65613;SDS011;52283;49.292;10.572;2023-07-24T11:52:23;5.35;;;3.80;;
65613;SDS011;52283;49.292;10.572;2023-07-24T11:54:56;5.82;;;3.22;;
65613;SDS011;52283;49.292;10.572;2023-07-24T11:57:26;5.32;;;3.75;;
65613;SDS011;52283;49.292;10.572;2023-07-24T11:59:53;5.45;;;3.42;;
65613;SDS011;52283;49.292;10.572;2023-07-24T12:02:21;6.07;;;3.72;;
65613;SDS011;52283;49.292;10.572;2023-07-24T12:04:53;6.53;;;4.28;;
65613;SDS011;52283;49.292;10.572;2023-07-24T12:07:20;6.63;;;3.63;;
65613;SDS011;52283;49.292;10.572;2023-07-24T12:09:49;5.88;;;3.53;;
65613;SDS011;52283;49.292;10.572;2023-07-24T12:12:18;8.70;;;4.07;;
65613;SDS011;52283;49.292;10.572;2023-07-24T12:14:44;5.45;;;3.35;;
65613;SDS011;52283;49.292;10.572;2023-07-24T12:17:11;9.18;;;4.30;;
65613;SDS011;52283;49.292;10.572;2023-07-24T12:19:43;7.10;;;4.13;;
65613;SDS011;52283;49.292;10.572;2023-07-24T12:22:09;8.07;;;4.03;;
65613;SDS011;52283;49.292;10.572;2023-07-24T12:24:36;5.63;;;4.22;;
65613;SDS011;52283;49.292;10.572;2023-07-24T12:27:02;7.13;;;4.22;;
65613;SDS011;52283;49.292;10.572;2023-07-24T12:29:30;8.00;;;4.90;;
65613;SDS011;52283;49.292;10.572;2023-07-24T12:31:57;5.78;;;3.95;;
65613;SDS011;52283;49.292;10.572;2023-07-24T12:34:23;7.18;;;4.57;;
65613;SDS011;52283;49.292;10.572;2023-07-24T12:36:50;6.63;;;4.55;;
65613;SDS011;52283;49.292;10.572;2023-07-24T12:39:17;7.60;;;4.18;;
65613;SDS011;52283;49.292;10.572;2023-07-24T12:41:43;8.05;;;4.47;;
65613;SDS011;52283;49.292;10.572;2023-07-24T12:44:10;6.45;;;3.97;;
65613;SDS011;52283;49.292;10.572;2023-07-24T12:46:37;6.85;;;4.25;;
65613;SDS011;52283;49.292;10.572;2023-07-24T12:49:04;7.63;;;4.47;;
65613;SDS011;52283;49.292;10.572;2023-07-24T12:51:30;6.82;;;4.25;;
65613;SDS011;52283;49.292;10.572;2023-07-24T12:53:57;6.47;;;4.50;;
65613;SDS011;52283;49.292;10.572;2023-07-24T12:56:23;6.20;;;3.85;;
65613;SDS011;52283;49.292;10.572;2023-07-24T12:58:50;8.68;;;3.95;;
65613;SDS011;52283;49.292;10.572;2023-07-24T13:01:16;7.45;;;4.13;;
65613;SDS011;52283;49.292;10.572;2023-07-24T13:03:44;5.85;;;4.10;;
65613;SDS011;52283;49.292;10.572;2023-07-24T13:06:10;6.25;;;4.22;;
65613;SDS011;52283;49.292;10.572;2023-07-24T13:08:37;6.13;;;4.10;;
65613;SDS011;52283;49.292;10.572;2023-07-24T13:11:03;7.38;;;4.60;;
65613;SDS011;52283;49.292;10.572;2023-07-24T13:13:30;5.90;;;4.30;;
65613;SDS011;52283;49.292;10.572;2023-07-24T13:15:56;4.90;;;3.50;;
65613;SDS011;52283;49.292;10.572;2023-07-24T13:18:23;4.85;;;3.85;;
65613;SDS011;52283;49.292;10.572;2023-07-24T13:20:51;6.78;;;3.95;;
65613;SDS011;52283;49.292;10.572;2023-07-24T13:23:17;6.72;;;4.00;;
65613;SDS011;52283;49.292;10.572;2023-07-24T13:25:43;5.93;;;4.07;;
65613;SDS011;52283;49.292;10.572;2023-07-24T13:28:10;7.55;;;4.68;;
65613;SDS011;52283;49.292;10.572;2023-07-24T13:30:36;5.63;;;4.07;;
65613;SDS011;52283;49.292;10.572;2023-07-24T13:33:03;4.97;;;3.25;;
65613;SDS011;52283;49.292;10.572;2023-07-24T13:35:29;4.88;;;3.67;;
65613;SDS011;52283;49.292;10.572;2023-07-24T13:37:57;7.28;;;4.05;;
65613;SDS011;52283;49.292;10.572;2023-07-24T13:40:23;6.30;;;3.42;;
65613;SDS011;52283;49.292;10.572;2023-07-24T13:42:50;4.72;;;3.05;;
65613;SDS011;52283;49.292;10.572;2023-07-24T13:45:16;4.10;;;3.10;;
65613;SDS011;52283;49.292;10.572;2023-07-24T13:47:43;3.78;;;2.90;;
65613;SDS011;52283;49.292;10.572;2023-07-24T13:50:09;5.47;;;2.60;;
65613;SDS011;52283;49.292;10.572;2023-07-24T13:52:36;3.63;;;2.65;;
65613;SDS011;52283;49.292;10.572;2023-07-24T13:55:04;5.15;;;3.10;;
65613;SDS011;52283;49.292;10.572;2023-07-24T13:57:31;4.32;;;3.05;;
65613;SDS011;52283;49.292;10.572;2023-07-24T13:59:57;4.18;;;2.60;;
65613;SDS011;52283;49.292;10.572;2023-07-24T14:02:24;5.07;;;3.35;;
65613;SDS011;52283;49.292;10.572;2023-07-24T14:04:50;3.67;;;2.40;;
65613;SDS011;52283;49.292;10.572;2023-07-24T14:07:17;4.57;;;3.15;;
65613;SDS011;52283;49.292;10.572;2023-07-24T14:09:44;5.78;;;3.47;;
65613;SDS011;52283;49.292;10.572;2023-07-24T14:12:12;3.92;;;2.92;;
65613;SDS011;52283;49.292;10.572;2023-07-24T14:14:38;4.82;;;3.03;;
65613;SDS011;52283;49.292;10.572;2023-07-24T14:17:05;5.50;;;3.40;;
65613;SDS011;52283;49.292;10.572;2023-07-24T14:19:31;4.40;;;3.17;;
65613;SDS011;52283;49.292;10.572;2023-07-24T14:21:58;6.95;;;3.35;;
65613;SDS011;52283;49.292;10.572;2023-07-24T14:24:24;3.75;;;2.90;;
65613;SDS011;52283;49.292;10.572;2023-07-24T14:26:51;5.38;;;2.60;;